createdAt,value
2022-11-04T00:00:31.561Z,3.21
2022-11-04T00:03:04.090Z,3.20
2022-11-04T00:05:33.771Z,3.19
2022-11-04T00:08:20.422Z,3.22
2022-11-04T00:11:07.246Z,3.25
2022-11-04T00:13:36.286Z,3.23
2022-11-04T00:16:23.820Z,3.23
2022-11-04T00:18:54.645Z,3.18
2022-11-04T00:21:41.736Z,3.16
2022-11-04T00:24:29.929Z,3.18
2022-11-04T00:27:16.825Z,3.30
2022-11-04T00:29:46.149Z,3.29
2022-11-04T00:32:47.508Z,3.32
2022-11-04T00:35:18.316Z,3.36
2022-11-04T00:37:47.803Z,3.28
2022-11-04T00:40:18.308Z,3.28
2022-11-04T00:42:47.832Z,3.32
2022-11-04T00:45:17.047Z,3.37
2022-11-04T00:47:46.563Z,3.49
2022-11-04T00:50:17.212Z,3.55
2022-11-04T00:52:46.329Z,3.63
2022-11-04T00:55:15.821Z,3.67
2022-11-04T00:57:45.005Z,3.71
2022-11-04T01:00:16.345Z,3.79
2022-11-04T01:02:45.615Z,3.87
2022-11-04T01:05:16.449Z,3.96
2022-11-04T01:07:45.664Z,4.07
2022-11-04T01:10:15.085Z,4.17
2022-11-04T01:12:44.175Z,4.10
2022-11-04T01:15:13.676Z,4.15
2022-11-04T01:17:42.871Z,4.19
2022-11-04T01:20:13.971Z,4.33
2022-11-04T01:22:44.774Z,4.40
2022-11-04T01:25:14.171Z,4.39
2022-11-04T01:27:43.283Z,4.40
2022-11-04T01:30:13.829Z,4.56
2022-11-04T01:32:43.276Z,4.66
2022-11-04T01:35:12.683Z,4.71
2022-11-04T01:37:43.090Z,4.64
2022-11-04T01:40:13.027Z,4.67
2022-11-04T01:42:42.069Z,4.71
2022-11-04T01:45:15.551Z,4.79
2022-11-04T01:47:50.722Z,4.64
2022-11-04T01:50:25.107Z,4.61
2022-11-04T01:53:00.027Z,4.69
2022-11-04T01:55:33.037Z,4.62
2022-11-04T01:58:07.344Z,4.64
2022-11-04T02:00:39.057Z,4.74
2022-11-04T02:03:12.750Z,4.70
2022-11-04T02:05:42.994Z,4.55
2022-11-04T02:08:15.580Z,4.77
2022-11-04T02:10:53.683Z,4.78
2022-11-04T02:13:21.985Z,4.86
2022-11-04T02:15:59.674Z,4.98
2022-11-04T02:18:52.485Z,5.04
2022-11-04T02:21:57.086Z,5.14
2022-11-04T02:25:02.867Z,5.18
2022-11-04T02:27:46.007Z,5.16
2022-11-04T02:30:19.126Z,-140.87
2022-11-04T02:33:19.015Z,-140.87
2022-11-04T02:36:00.114Z,5.27
2022-11-04T02:38:38.143Z,5.36
2022-11-04T02:41:17.781Z,5.39
2022-11-04T02:44:07.177Z,5.54
2022-11-04T02:46:41.449Z,5.58
2022-11-04T02:49:15.820Z,5.63
2022-11-04T02:51:50.271Z,5.75
2022-11-04T02:54:25.447Z,5.89
2022-11-04T02:56:58.648Z,5.91
2022-11-04T02:59:34.030Z,6.00
2022-11-04T03:02:09.543Z,5.99
2022-11-04T03:04:43.554Z,6.03
2022-11-04T03:07:16.408Z,6.19
2022-11-04T03:09:51.160Z,6.27
2022-11-04T03:12:26.548Z,6.25
2022-11-04T03:15:03.128Z,6.24
2022-11-04T03:17:38.768Z,6.37
2022-11-04T03:20:14.523Z,6.40
2022-11-04T03:22:43.790Z,6.35
2022-11-04T03:25:13.531Z,6.40
2022-11-04T03:27:49.723Z,6.38
2022-11-04T03:35:34.020Z,6.69
2022-11-04T03:38:04.196Z,6.70
2022-11-04T03:40:33.412Z,6.73
2022-11-04T03:43:10.212Z,6.73
2022-11-04T03:45:40.424Z,6.74
2022-11-04T03:48:10.162Z,6.70
2022-11-04T03:50:44.649Z,6.71
2022-11-04T03:53:15.567Z,6.70
2022-11-04T03:55:57.801Z,6.75
2022-11-04T03:58:40.120Z,6.85
2022-11-04T04:01:20.967Z,6.82
2022-11-04T04:03:57.721Z,6.85
2022-11-04T04:06:32.600Z,6.89
2022-11-04T04:09:09.657Z,6.86
2022-11-04T04:11:46.023Z,6.86
2022-11-04T04:14:39.231Z,6.92
2022-11-04T04:17:17.509Z,6.95
2022-11-04T04:19:53.446Z,7.07
2022-11-04T04:22:28.375Z,7.09
2022-11-04T04:25:20.510Z,7.10
2022-11-04T04:27:53.041Z,7.10
2022-11-04T04:30:22.577Z,7.09
2022-11-04T04:32:55.909Z,7.12
2022-11-04T04:35:44.703Z,7.14
2022-11-04T04:38:39.884Z,7.27
2022-11-04T04:41:30.546Z,7.32
2022-11-04T04:44:23.501Z,7.35
2022-11-04T04:46:55.565Z,7.54
2022-11-04T04:49:24.668Z,7.51
2022-11-04T04:51:54.010Z,7.41
2022-11-04T04:54:24.472Z,7.43
2022-11-04T04:56:53.822Z,7.43
2022-11-04T04:59:22.918Z,7.49
2022-11-04T05:01:52.344Z,7.49
2022-11-04T05:04:21.539Z,7.69
2022-11-04T05:06:51.064Z,7.75
2022-11-04T05:09:20.143Z,7.74
2022-11-04T05:11:50.934Z,7.71
2022-11-04T05:14:20.045Z,7.66
2022-11-04T05:16:49.457Z,7.76
2022-11-04T05:19:18.472Z,7.68
2022-11-04T05:21:47.891Z,7.81
2022-11-04T05:24:17.046Z,7.84
2022-11-04T05:26:46.417Z,7.85
2022-11-04T05:29:17.023Z,7.92
2022-11-04T05:31:46.560Z,7.89
2022-11-04T05:34:16.289Z,7.85
2022-11-04T05:36:45.731Z,7.82
2022-11-04T05:39:15.387Z,7.80
2022-11-04T05:41:44.762Z,7.76
2022-11-04T05:44:15.918Z,7.81
2022-11-04T05:46:45.292Z,7.85
2022-11-04T05:49:14.543Z,7.88
2022-11-04T05:51:44.575Z,7.81
2022-11-04T05:54:13.648Z,7.78
2022-11-04T05:56:43.030Z,7.83
2022-11-04T05:59:12.025Z,7.78
2022-11-04T06:01:44.153Z,7.76
2022-11-04T06:04:17.661Z,7.77
2022-11-04T06:06:47.344Z,7.85
2022-11-04T06:09:16.525Z,7.81
2022-11-04T06:11:46.414Z,7.90
2022-11-04T06:14:18.758Z,7.78
2022-11-04T06:16:49.820Z,7.66
2022-11-04T06:19:19.086Z,7.65
2022-11-04T06:21:48.371Z,7.62
2022-11-04T06:24:17.401Z,7.67
2022-11-04T06:26:47.146Z,7.75
2022-11-04T06:29:16.285Z,7.72
2022-11-04T06:31:45.821Z,7.76
2022-11-04T06:34:16.585Z,7.86
2022-11-04T06:36:46.237Z,7.78
2022-11-04T06:39:15.327Z,7.81
2022-11-04T06:41:47.463Z,7.72
2022-11-04T06:44:18.178Z,7.65
2022-11-04T06:46:47.624Z,7.60
2022-11-04T06:49:20.414Z,7.76
2022-11-04T06:51:50.038Z,7.68
2022-11-04T06:54:19.909Z,7.81
2022-11-04T06:56:49.761Z,7.93
2022-11-04T06:59:21.000Z,7.95
2022-11-04T07:01:52.324Z,8.10
2022-11-04T07:04:23.009Z,8.23
2022-11-04T07:06:52.599Z,8.36
2022-11-04T07:09:21.734Z,8.35
2022-11-04T07:11:51.294Z,8.53
2022-11-04T07:14:20.389Z,8.60
2022-11-04T07:16:52.346Z,8.74
2022-11-04T07:19:22.793Z,8.75
2022-11-04T07:21:52.362Z,8.86
2022-11-04T07:24:21.435Z,8.83
2022-11-04T07:26:50.751Z,8.95
2022-11-04T07:29:20.179Z,8.95
2022-11-04T07:31:49.709Z,9.03
2022-11-04T07:34:18.887Z,9.08
2022-11-04T07:36:49.703Z,9.18
2022-11-04T07:39:18.796Z,8.99
2022-11-04T07:41:48.162Z,8.94
2022-11-04T07:44:17.224Z,9.06
2022-11-04T07:46:46.778Z,9.18
2022-11-04T07:49:15.862Z,9.23
2022-11-04T07:51:45.333Z,9.26
2022-11-04T07:54:15.873Z,9.31
2022-11-04T07:56:45.285Z,9.30
2022-11-04T07:59:14.373Z,9.41
2022-11-04T08:01:43.830Z,9.43
2022-11-04T08:04:12.970Z,9.37
2022-11-04T08:06:42.619Z,9.46
2022-11-04T08:09:11.667Z,9.52
2022-11-04T08:11:42.617Z,9.65
2022-11-04T08:14:15.726Z,9.79
2022-11-04T08:16:45.813Z,9.98
2022-11-04T08:19:15.021Z,10.17
2022-11-04T08:21:44.518Z,10.39
2022-11-04T08:24:13.712Z,10.42
2022-11-04T08:26:46.358Z,10.62
2022-11-04T08:29:15.661Z,10.91
2022-11-04T08:31:45.090Z,11.25
2022-11-04T08:34:14.783Z,11.48
2022-11-04T08:36:44.177Z,11.42
2022-11-04T08:39:14.223Z,11.34
2022-11-04T08:41:45.668Z,11.52
2022-11-04T08:44:15.286Z,11.60
2022-11-04T08:46:46.289Z,12.07
2022-11-04T08:49:20.676Z,12.63
2022-11-04T08:51:56.727Z,12.67
2022-11-04T08:54:26.418Z,12.69
2022-11-04T08:56:57.165Z,12.77
2022-11-04T08:59:26.331Z,13.00
2022-11-04T09:01:55.958Z,13.34
2022-11-04T09:04:25.133Z,13.24
2022-11-04T09:06:56.397Z,12.93
2022-11-04T09:09:25.763Z,13.22
2022-11-04T09:11:57.317Z,13.14
2022-11-04T09:14:26.557Z,13.33
2022-11-04T09:16:57.963Z,13.82
2022-11-04T09:19:27.277Z,13.82
2022-11-04T09:21:56.759Z,14.19
2022-11-04T09:24:26.158Z,13.67
2022-11-04T09:26:56.874Z,13.51
2022-11-04T09:29:25.921Z,13.68
2022-11-04T09:31:56.423Z,13.61
2022-11-04T09:34:25.530Z,14.38
2022-11-04T09:36:57.348Z,14.57
2022-11-04T09:39:27.533Z,14.65
2022-11-04T09:42:23.053Z,14.93
2022-11-04T09:45:20.762Z,14.85
2022-11-04T09:47:49.384Z,15.16
2022-11-04T09:50:24.313Z,15.20
2022-11-04T09:52:58.224Z,15.65
2022-11-04T09:55:33.697Z,15.58
2022-11-04T09:58:05.075Z,15.39
2022-11-04T10:00:39.234Z,16.38
2022-11-04T10:03:21.958Z,16.19
2022-11-04T10:06:05.555Z,15.94
2022-11-04T10:08:57.411Z,16.24
2022-11-04T10:11:34.716Z,15.50
2022-11-04T10:14:35.464Z,15.35
2022-11-04T10:17:19.829Z,16.93
2022-11-04T10:20:04.663Z,18.48
2022-11-04T10:22:39.558Z,19.06
2022-11-04T10:25:15.637Z,20.45
2022-11-04T10:27:48.255Z,20.90
2022-11-04T10:30:22.728Z,20.25
2022-11-04T10:33:00.715Z,19.01
2022-11-04T10:35:36.078Z,19.02
2022-11-04T10:38:17.515Z,18.42
2022-11-04T10:40:50.468Z,21.57
2022-11-04T10:43:27.752Z,21.03
2022-11-04T10:46:15.586Z,19.25
2022-11-04T10:48:51.107Z,16.38
2022-11-04T10:51:22.379Z,15.76
2022-11-04T10:53:55.956Z,15.63
2022-11-04T10:56:35.878Z,16.22
2022-11-04T10:59:20.798Z,16.45
2022-11-04T11:01:53.955Z,17.27
2022-11-04T11:04:30.404Z,17.93
2022-11-04T11:07:02.037Z,19.56
2022-11-04T11:09:33.457Z,18.97
2022-11-04T11:12:29.493Z,18.86
2022-11-04T11:14:55.862Z,21.13
2022-11-04T11:17:37.649Z,21.72
2022-11-04T11:20:22.528Z,22.20
2022-11-04T11:22:54.231Z,23.63
2022-11-04T11:25:29.115Z,22.05
2022-11-04T11:28:00.503Z,19.83
2022-11-04T11:30:32.711Z,19.46
2022-11-04T11:33:08.344Z,19.98
2022-11-04T11:35:42.565Z,18.26
2022-11-04T11:38:22.458Z,17.96
2022-11-04T11:41:23.224Z,16.59
2022-11-04T11:43:47.494Z,16.68
2022-11-04T11:46:24.171Z,17.75
2022-11-04T11:49:01.067Z,17.05
2022-11-04T11:51:33.186Z,17.07
2022-11-04T11:54:33.656Z,16.83
2022-11-04T11:57:14.205Z,16.83
2022-11-04T12:02:48.921Z,15.87
2022-11-04T12:11:29.288Z,16.39
2022-11-04T12:14:03.352Z,15.77
2022-11-04T12:16:41.866Z,15.90
2022-11-04T12:19:32.294Z,15.19
2022-11-04T12:22:10.989Z,15.23
2022-11-04T12:24:48.169Z,14.87
2022-11-04T12:27:30.465Z,14.52
2022-11-04T12:30:09.918Z,14.20
2022-11-04T12:32:53.345Z,14.23
2022-11-04T12:35:34.315Z,14.25
2022-11-04T12:38:20.412Z,14.50
2022-11-04T12:43:59.889Z,14.56
2022-11-04T12:46:38.507Z,14.86
2022-11-04T12:49:46.415Z,14.93
2022-11-04T12:52:30.676Z,15.08
2022-11-04T12:55:19.492Z,15.49
2022-11-04T12:57:54.103Z,16.64
2022-11-04T13:00:25.374Z,16.82
2022-11-04T13:03:02.271Z,17.05
2022-11-04T13:05:41.197Z,17.54
2022-11-04T13:08:20.007Z,18.62
2022-11-04T13:10:58.469Z,19.46
2022-11-04T13:13:33.404Z,18.02
2022-11-04T13:16:07.566Z,18.38
2022-11-04T13:18:41.095Z,17.34
2022-11-04T13:21:14.954Z,16.27
2022-11-04T13:23:51.872Z,15.92
2022-11-04T13:26:22.647Z,16.08
2022-11-04T13:29:08.653Z,16.37
2022-11-04T13:31:51.575Z,16.56
2022-11-04T13:34:35.760Z,16.65
2022-11-04T13:37:16.063Z,16.62
2022-11-04T13:39:50.038Z,16.88
2022-11-04T13:43:21.183Z,17.39
2022-11-04T13:45:55.168Z,16.01
2022-11-04T13:48:27.867Z,15.92
2022-11-04T13:51:01.403Z,15.41
2022-11-04T13:53:46.875Z,15.23
2022-11-04T13:56:34.947Z,15.34
2022-11-04T13:59:19.321Z,15.00
2022-11-04T14:01:50.755Z,14.75
2022-11-04T14:04:28.303Z,14.24
2022-11-04T14:07:00.046Z,13.87
2022-11-04T14:09:53.477Z,14.03
2022-11-04T14:12:40.590Z,13.83
2022-11-04T14:15:41.943Z,13.67
2022-11-04T14:18:29.690Z,13.60
2022-11-04T14:21:10.603Z,13.36
2022-11-04T14:23:41.753Z,13.25
2022-11-04T14:26:13.958Z,13.43
2022-11-04T14:28:46.668Z,13.33
2022-11-04T14:31:35.326Z,13.03
2022-11-04T14:34:07.258Z,13.15
2022-11-04T14:36:40.087Z,13.00
2022-11-04T14:39:25.329Z,13.15
2022-11-04T14:41:57.984Z,12.92
2022-11-04T14:44:36.539Z,12.63
2022-11-04T14:47:18.717Z,12.63
2022-11-04T14:49:52.104Z,12.62
2022-11-04T14:52:25.042Z,12.58
2022-11-04T14:54:58.698Z,12.42
2022-11-04T14:57:31.249Z,12.38
2022-11-04T15:00:00.286Z,12.51
2022-11-04T15:02:33.967Z,12.34
2022-11-04T15:05:04.870Z,12.16
2022-11-04T15:07:37.592Z,12.35
2022-11-04T15:10:21.599Z,12.41
2022-11-04T15:12:55.265Z,12.26
2022-11-04T15:15:31.516Z,12.23
2022-11-04T15:18:08.290Z,12.21
2022-11-04T15:20:46.046Z,12.09
2022-11-04T15:23:19.091Z,12.09
2022-11-04T15:25:50.232Z,11.99
2022-11-04T15:28:22.856Z,11.84
2022-11-04T15:31:04.417Z,11.86
2022-11-04T15:33:38.806Z,11.79
2022-11-04T15:36:14.018Z,11.60
2022-11-04T15:38:48.544Z,11.69
2022-11-04T15:41:38.690Z,11.75
2022-11-04T15:44:17.402Z,11.83
2022-11-04T15:46:52.015Z,11.80
2022-11-04T15:49:27.986Z,11.82
2022-11-04T15:52:01.937Z,11.81
2022-11-04T15:54:34.548Z,11.78
2022-11-04T15:57:15.686Z,11.76
2022-11-04T15:59:51.618Z,11.56
2022-11-04T16:02:30.244Z,11.70
2022-11-04T16:05:08.784Z,11.84
2022-11-04T16:07:40.957Z,11.81
2022-11-04T16:10:30.239Z,11.95
2022-11-04T16:13:01.186Z,11.92
2022-11-04T16:15:36.262Z,11.94
2022-11-04T16:18:07.443Z,11.94
2022-11-04T16:20:37.633Z,11.96
2022-11-04T16:23:08.778Z,11.92
2022-11-04T16:25:38.649Z,11.86
2022-11-04T16:28:08.547Z,11.86
2022-11-04T16:30:37.942Z,11.89
2022-11-04T16:33:12.283Z,11.92
2022-11-04T16:35:43.194Z,11.88
2022-11-04T16:38:13.880Z,11.94
2022-11-04T16:40:44.918Z,11.99
2022-11-04T16:43:14.945Z,11.97
2022-11-04T16:45:53.313Z,11.93
2022-11-04T16:48:24.815Z,11.98
2022-11-04T16:50:54.840Z,11.88
2022-11-04T16:53:25.397Z,11.61
2022-11-04T16:55:56.798Z,11.91
2022-11-04T16:58:26.046Z,11.95
2022-11-04T17:00:56.471Z,11.97
2022-11-04T17:03:27.852Z,11.75
2022-11-04T17:05:58.656Z,11.88
2022-11-04T17:08:29.204Z,11.83
2022-11-04T17:10:58.680Z,11.74
2022-11-04T17:13:30.865Z,11.71
2022-11-04T17:16:05.274Z,11.89
2022-11-04T17:18:35.495Z,11.72
2022-11-04T17:21:08.246Z,11.84
2022-11-04T17:23:38.906Z,11.71
2022-11-04T17:26:08.264Z,11.71
2022-11-04T17:28:37.695Z,11.77
2022-11-04T17:31:08.061Z,11.79
2022-11-04T17:33:37.177Z,11.76
2022-11-04T17:36:07.926Z,11.74
2022-11-04T17:38:38.738Z,11.66
2022-11-04T17:41:25.407Z,11.54
2022-11-04T17:44:03.557Z,11.45
2022-11-04T17:46:38.859Z,11.59
2022-11-04T17:49:12.749Z,11.66
2022-11-04T17:51:43.521Z,11.57
2022-11-04T17:54:14.177Z,11.45
2022-11-04T17:56:44.384Z,11.48
2022-11-04T17:59:15.072Z,11.43
2022-11-04T18:01:45.237Z,11.41
2022-11-04T18:04:16.729Z,11.55
2022-11-04T18:06:46.930Z,11.55
2022-11-04T18:09:18.426Z,11.58
2022-11-04T18:12:06.465Z,11.60
2022-11-04T18:14:35.566Z,11.73
2022-11-04T18:17:05.810Z,11.54
2022-11-04T18:19:34.915Z,11.59
2022-11-04T18:22:04.605Z,11.62
2022-11-04T18:24:35.455Z,11.65
2022-11-04T18:27:04.904Z,11.68
2022-11-04T18:29:34.341Z,11.75
2022-11-04T18:32:03.773Z,11.71
2022-11-04T18:34:33.146Z,11.72
2022-11-04T18:37:02.973Z,11.58
2022-11-04T18:39:32.353Z,11.63
2022-11-04T18:42:03.266Z,11.80
2022-11-04T18:44:32.506Z,11.63
2022-11-04T18:47:01.893Z,11.78
2022-11-04T18:49:31.292Z,11.84
2022-11-04T18:52:00.799Z,11.75
2022-11-04T18:54:30.075Z,11.82
2022-11-04T18:56:59.549Z,11.69
2022-11-04T18:59:30.093Z,11.71
2022-11-04T19:01:59.610Z,11.77
2022-11-04T19:04:28.946Z,11.56
2022-11-04T19:06:58.779Z,11.59
2022-11-04T19:12:34.612Z,11.63
2022-11-04T19:15:06.424Z,11.67
2022-11-04T19:17:37.914Z,11.65
2022-11-04T19:20:12.077Z,11.54
2022-11-04T19:22:42.372Z,11.65
2022-11-04T19:25:11.970Z,11.59
2022-11-04T19:27:41.441Z,11.30
2022-11-04T19:30:13.190Z,11.43
2022-11-04T19:32:43.944Z,11.50
2022-11-04T19:35:13.775Z,11.53
2022-11-04T19:37:43.185Z,11.50
2022-11-04T19:40:13.801Z,11.44
2022-11-04T19:43:00.426Z,11.51
2022-11-04T19:45:30.846Z,11.39
2022-11-04T19:48:00.442Z,11.46
2022-11-04T19:50:29.513Z,11.47
2022-11-04T19:52:59.491Z,11.57
2022-11-04T19:55:29.930Z,11.65
2022-11-04T19:57:59.347Z,11.53
2022-11-04T20:00:30.029Z,11.55
2022-11-04T20:03:00.258Z,11.47
2022-11-04T20:05:29.358Z,11.57
2022-11-04T20:08:04.854Z,11.53
2022-11-04T20:10:38.187Z,11.57
2022-11-04T20:13:25.363Z,11.49
2022-11-04T20:15:55.799Z,11.52
2022-11-04T20:18:25.160Z,11.34
2022-11-04T20:20:54.303Z,11.41
2022-11-04T20:23:23.803Z,11.54
2022-11-04T20:25:53.109Z,11.53
2022-11-04T20:28:22.530Z,11.20
2022-11-04T20:30:51.646Z,11.17
2022-11-04T20:33:22.472Z,11.32
2022-11-04T20:35:52.202Z,11.47
2022-11-04T20:38:21.622Z,11.30
2022-11-04T20:40:50.731Z,11.38
2022-11-04T20:43:20.153Z,11.34
2022-11-04T20:45:52.334Z,11.25
2022-11-04T20:48:23.384Z,11.23
2022-11-04T20:50:52.887Z,11.26
2022-11-04T20:53:22.249Z,11.20
2022-11-04T20:55:51.371Z,11.12
2022-11-04T20:58:20.753Z,11.24
2022-11-04T21:00:49.716Z,11.32
2022-11-04T21:03:19.089Z,11.31
2022-11-04T21:05:49.697Z,11.45
2022-11-04T21:08:19.222Z,11.47
2022-11-04T21:10:50.674Z,11.41
2022-11-04T21:13:20.505Z,11.56
2022-11-04T21:15:53.525Z,11.40
2022-11-04T21:18:23.590Z,11.47
2022-11-04T21:20:54.721Z,11.29
2022-11-04T21:23:24.496Z,11.38
2022-11-04T21:25:56.307Z,11.39
2022-11-04T21:28:26.525Z,11.21
2022-11-04T21:30:55.986Z,11.28
2022-11-04T21:33:25.352Z,11.42
2022-11-04T21:35:55.781Z,11.27
2022-11-04T21:38:25.055Z,11.28
2022-11-04T21:40:54.278Z,11.23
2022-11-04T21:43:23.651Z,11.33
2022-11-04T21:45:52.756Z,11.33
2022-11-04T21:48:22.405Z,11.25
2022-11-04T21:50:51.436Z,11.46
2022-11-04T21:53:22.246Z,11.38
2022-11-04T21:55:51.269Z,11.15
2022-11-04T21:58:20.919Z,11.23
2022-11-04T22:00:56.854Z,11.23
2022-11-04T22:03:26.841Z,11.17
2022-11-04T22:06:00.597Z,11.27
2022-11-04T22:08:32.507Z,11.32
2022-11-04T22:11:08.341Z,11.23
2022-11-04T22:13:38.496Z,11.41
2022-11-04T22:16:13.272Z,11.28
2022-11-04T22:18:43.134Z,11.49
2022-11-04T22:21:15.202Z,11.59
2022-11-04T22:23:46.658Z,11.53
2022-11-04T22:26:18.192Z,11.44
2022-11-04T22:28:48.368Z,11.61
2022-11-04T22:31:19.293Z,11.53
2022-11-04T22:33:49.410Z,11.40
2022-11-04T22:36:18.861Z,11.51
2022-11-04T22:38:49.711Z,11.43
2022-11-04T22:41:21.137Z,11.51
2022-11-04T22:43:51.133Z,11.32
2022-11-04T22:46:22.327Z,11.35
2022-11-04T22:48:51.682Z,11.31
2022-11-04T22:51:21.146Z,11.20
2022-11-04T22:54:00.021Z,11.11
2022-11-04T22:56:30.571Z,11.26
2022-11-04T22:59:00.491Z,11.32
2022-11-04T23:01:31.551Z,11.41
2022-11-04T23:04:02.829Z,11.46
2022-11-04T23:06:32.303Z,11.51
2022-11-04T23:09:03.449Z,11.39
2022-11-04T23:11:51.462Z,11.28
2022-11-04T23:14:40.283Z,11.44
2022-11-04T23:17:34.194Z,11.23
2022-11-04T23:20:04.882Z,11.22
2022-11-04T23:22:51.282Z,11.27
2022-11-04T23:25:22.481Z,11.19
2022-11-04T23:28:11.144Z,11.34
2022-11-04T23:30:42.343Z,11.52
2022-11-04T23:33:13.469Z,11.31
2022-11-04T23:36:03.997Z,11.13
2022-11-04T23:38:35.341Z,11.32
2022-11-04T23:41:25.485Z,11.26
2022-11-04T23:43:54.618Z,11.36
2022-11-04T23:46:43.542Z,11.33
2022-11-04T23:49:30.568Z,11.29
2022-11-04T23:52:17.447Z,11.36
2022-11-04T23:55:04.128Z,10.98
2022-11-04T23:57:52.424Z,10.98
